Tabellarische Übersicht vom Sonntag, den 27.09.2020

Oder anderes Datum wählen:






max 14,5°C 92,0% 11,0°C 1006,5hPa 14,0°C 0,0km/h (0Bft) 0,0km/h 0° (N) ∑9,7l/m² 42,000klx ∑282,8min
min 9,7°C 69,0% 8,4°C 992,0hPa 10,0°C 0,0km/h (0Bft) 0,0km/h 0° (N) ∑9,7l/m² 0,000klx ∑282,8min
Ø 12,0°C 84,0% 9,4°C 999,3hPa 12,0°C 0,0km/h (0Bft) 0,0km/h 0° (N) ∑9,7l/m² 14,000klx ∑282,8min
Zeit Temperatur Luftfeuchte Taupunkt Luftdruck Windchill Windböen Windgeschwindigkeit Windrichtung Regen Helligkeit Regenzeit
21:30 11,0°C 90,7% 9,6°C 1006,5hPa 11,0°C 0,0km/h (0Bft) 0,0km/h 0,0l/m² 0,000klx 0,0min
21:25 11,1°C 90,7% 9,6°C 1006,3hPa 11,1°C 0,0km/h (0Bft) 0,0km/h 0,0l/m² 0,000klx 0,0min
21:20 11,1°C 90,5% 9,6°C 1006,2hPa 11,1°C 0,0km/h (0Bft) 0,0km/h 0,0l/m² 0,000klx 0,0min
21:15 11,2°C 90,3% 9,6°C 1006,3hPa 11,2°C 0,0km/h (0Bft) 0,0km/h 0,0l/m² 0,000klx 0,0min
21:10 11,2°C 90,1% 9,6°C 1006,3hPa 11,2°C 0,0km/h (0Bft) 0,0km/h 0,0l/m² 0,000klx 0,0min
21:05 11,2°C 89,7% 9,5°C 1006,3hPa 11,2°C 0,0km/h (0Bft) 0,0km/h 0,0l/m² 0,000klx 0,0min
21:00 11,4°C 89,2% 9,6°C 1006,4hPa 11,4°C 0,0km/h (0Bft) 0,0km/h 0,0l/m² 0,000klx 0,0min
20:55 11,4°C 88,7% 9,6°C 1006,4hPa 11,4°C 0,0km/h (0Bft) 0,0km/h 0,0l/m² 0,000klx 0,0min
20:50 11,5°C 88,7% 9,7°C 1006,3hPa 11,5°C 0,0km/h (0Bft) 0,0km/h 0,0l/m² 0,000klx 0,0min
20:45 11,5°C 88,9% 9,7°C 1006,1hPa 11,5°C 0,0km/h (0Bft) 0,0km/h 0,0l/m² 0,000klx 0,0min
20:40 11,7°C 89,2% 9,9°C 1005,9hPa 11,7°C 0,0km/h (0Bft) 0,0km/h 0,0l/m² 0,000klx 0,0min
20:35 11,7°C 89,5% 10,0°C 1005,9hPa 11,7°C 0,0km/h (0Bft) 0,0km/h 0,0l/m² 0,000klx 0,0min
20:30 11,8°C 89,2% 10,1°C 1005,9hPa 11,8°C 0,0km/h (0Bft) 0,0km/h 0,0l/m² 0,000klx 0,0min
20:25 11,9°C 88,5% 10,1°C 1005,9hPa 11,9°C 0,0km/h (0Bft) 0,0km/h 0,0l/m² 0,000klx 0,0min
20:20 12,2°C 87,5% 10,2°C 1006,0hPa 12,2°C 0,0km/h (0Bft) 0,0km/h 0,0l/m² 0,000klx 0,0min
20:15 12,2°C 86,6% 10,1°C 1006,0hPa 12,2°C 0,0km/h (0Bft) 0,0km/h 0,0l/m² 0,000klx 0,0min
20:10 12,4°C 86,7% 10,3°C 1006,0hPa 12,4°C 0,0km/h (0Bft) 0,0km/h 0,0l/m² 0,000klx 0,0min
20:05 12,4°C 86,4% 10,2°C 1005,9hPa 12,4°C 0,0km/h (0Bft) 0,0km/h 0,0l/m² 0,000klx 0,0min
20:00 12,6°C 86,2% 10,3°C 1005,9hPa 12,6°C 0,0km/h (0Bft) 0,0km/h 0,0l/m² 0,001klx 0,0min
19:55 12,8°C 85,6% 10,4°C 1005,8hPa 12,8°C 0,0km/h (0Bft) 0,0km/h 0,0l/m² 0,002klx 0,0min
19:50 12,9°C 84,7% 10,4°C 1005,8hPa 12,9°C 0,0km/h (0Bft) 0,0km/h 0,0l/m² 0,004klx 0,0min
19:45 13,0°C 83,3% 10,3°C 1005,9hPa 13,0°C 0,0km/h (0Bft) 0,0km/h 0,0l/m² 0,008klx 0,0min
19:40 13,2°C 81,1% 10,0°C 1006,1hPa 13,2°C 0,0km/h (0Bft) 0,0km/h 0,0l/m² 0,015klx 0,0min
19:35 13,3°C 79,1% 9,8°C 1006,0hPa 13,3°C 0,0km/h (0Bft) 0,0km/h 0,0l/m² 0,030klx 0,0min
19:30 13,4°C 78,1% 9,7°C 1005,9hPa 13,4°C 0,0km/h (0Bft) 0,0km/h 0,0l/m² 0,062klx 0,0min
19:25 13,4°C 78,4% 9,7°C 1005,8hPa 13,4°C 0,0km/h (0Bft) 0,0km/h 0,0l/m² 0,115klx 0,0min
19:20 13,5°C 77,4% 9,7°C 1005,7hPa 13,5°C 0,0km/h (0Bft) 0,0km/h 0,0l/m² 0,170klx 0,0min
19:15 13,5°C 78,3% 9,8°C 1005,5hPa 13,5°C 0,0km/h (0Bft) 0,0km/h 0,0l/m² 0,293klx 0,0min
19:10 13,5°C 77,7% 9,7°C 1005,4hPa 13,5°C 0,0km/h (0Bft) 0,0km/h 0,0l/m² 0,463klx 0,0min
19:05 13,7°C 77,2% 9,7°C 1005,5hPa 13,7°C 0,0km/h (0Bft) 0,0km/h 0,0l/m² 0,652klx 0,0min
19:00 13,8°C 76,1% 9,7°C 1005,4hPa 13,8°C 0,0km/h (0Bft) 0,0km/h 0,0l/m² 0,912klx 0,0min
18:55 13,9°C 76,3% 9,8°C 1005,3hPa 13,9°C 0,0km/h (0Bft) 0,0km/h 0,0l/m² 1,157klx 0,0min
18:50 14,0°C 74,0% 9,5°C 1005,3hPa 14,0°C 0,0km/h (0Bft) 0,0km/h 0,0l/m² 1,467klx 0,0min
18:45 13,9°C 74,7% 9,5°C 1005,2hPa 13,9°C 0,0km/h (0Bft) 0,0km/h 0,0l/m² 1,702klx 0,0min
18:40 14,0°C 74,0% 9,5°C 1005,1hPa 14,0°C 0,0km/h (0Bft) 0,0km/h 0,0l/m² 1,970klx 0,0min
18:35 14,0°C 74,0% 9,5°C 1005,1hPa 14,0°C 0,0km/h (0Bft) 0,0km/h 0,0l/m² 2,536klx 0,0min
18:30 14,2°C 72,6% 9,3°C 1005,1hPa 14,2°C 0,0km/h (0Bft) 0,0km/h 0,0l/m² 3,225klx 0,0min
18:25 14,2°C 71,6% 9,2°C 1005,0hPa 14,2°C 0,0km/h (0Bft) 0,0km/h 0,0l/m² 4,303klx 0,0min
18:20 14,2°C 71,6% 9,2°C 1005,0hPa 14,2°C 0,0km/h (0Bft) 0,0km/h 0,0l/m² 5,753klx 0,0min
18:15 14,3°C 71,7% 9,2°C 1004,9hPa 14,3°C 0,0km/h (0Bft) 0,0km/h 0,0l/m² 6,433klx 0,0min
18:10 14,3°C 71,4% 9,2°C 1004,9hPa 14,3°C 0,0km/h (0Bft) 0,0km/h 0,0l/m² 7,252klx 0,0min
18:05 14,3°C 71,0% 9,1°C 1004,8hPa 14,3°C 0,0km/h (0Bft) 0,0km/h 0,0l/m² 8,723klx 0,0min
18:00 14,4°C 71,1% 9,2°C 1004,7hPa 14,4°C 0,0km/h (0Bft) 0,0km/h 0,0l/m² 8,674klx 0,0min
17:55 14,4°C 71,6% 9,3°C 1004,7hPa 14,4°C 0,0km/h (0Bft) 0,0km/h 0,0l/m² 9,184klx 0,0min
17:50 14,4°C 69,8% 8,9°C 1004,7hPa 14,4°C 0,0km/h (0Bft) 0,0km/h 0,0l/m² 9,357klx 0,0min
17:45 14,2°C 70,8% 9,0°C 1004,6hPa 14,2°C 0,0km/h (0Bft) 0,0km/h 0,0l/m² 9,146klx 0,0min
17:40 14,2°C 71,5% 9,1°C 1004,5hPa 14,2°C 0,0km/h (0Bft) 0,0km/h 0,0l/m² 7,772klx 0,0min
17:35 14,3°C 70,4% 8,9°C 1004,4hPa 14,3°C 0,0km/h (0Bft) 0,0km/h 0,0l/m² 9,138klx 0,0min
17:30 14,3°C 70,2% 8,9°C 1004,3hPa 14,3°C 0,0km/h (0Bft) 0,0km/h 0,0l/m² 10,938klx 0,0min
17:25 14,2°C 72,2% 9,2°C 1004,3hPa 14,2°C 0,0km/h (0Bft) 0,0km/h 0,0l/m² 9,791klx 0,0min
17:20 14,2°C 71,0% 9,0°C 1004,3hPa 14,2°C 0,0km/h (0Bft) 0,0km/h 0,0l/m² 9,780klx 0,0min
17:15 14,2°C 70,7% 8,9°C 1004,3hPa 14,2°C 0,0km/h (0Bft) 0,0km/h 0,0l/m² 11,110klx 0,0min
17:10 14,1°C 70,8% 8,9°C 1004,3hPa 14,1°C 0,0km/h (0Bft) 0,0km/h 0,0l/m² 11,731klx 0,0min
17:05 14,3°C 70,0% 8,9°C 1004,3hPa 14,3°C 0,0km/h (0Bft) 0,0km/h 0,0l/m² 12,129klx 0,0min
17:00 14,4°C 69,4% 8,8°C 1004,3hPa 14,4°C 0,0km/h (0Bft) 0,0km/h 0,0l/m² 13,645klx 0,0min
16:55 14,4°C 69,1% 8,8°C 1004,3hPa 14,4°C 0,0km/h (0Bft) 0,0km/h 0,0l/m² 14,525klx 0,0min
16:50 14,4°C 69,7% 8,9°C 1004,3hPa 14,4°C 0,0km/h (0Bft) 0,0km/h 0,0l/m² 13,170klx 0,0min
16:45 14,2°C 70,0% 8,8°C 1004,2hPa 14,2°C 0,0km/h (0Bft) 0,0km/h 0,0l/m² 10,764klx 0,0min
16:40 14,2°C 71,2% 9,0°C 1004,1hPa 14,2°C 0,0km/h (0Bft) 0,0km/h 0,0l/m² 8,515klx 0,0min
16:35 14,3°C 69,9% 8,9°C 1004,1hPa 14,3°C 0,0km/h (0Bft) 0,0km/h 0,0l/m² 9,160klx 0,0min
16:30 14,3°C 69,5% 8,8°C 1004,1hPa 14,3°C 0,0km/h (0Bft) 0,0km/h 0,0l/m² 8,297klx 0,0min
16:25 14,1°C 69,9% 8,7°C 1004,0hPa 14,1°C 0,0km/h (0Bft) 0,0km/h 0,0l/m² 7,150klx 0,0min
16:20 13,9°C 70,6% 8,7°C 1003,9hPa 13,9°C 0,0km/h (0Bft) 0,0km/h 0,0l/m² 6,611klx 0,0min
16:15 14,0°C 70,6% 8,8°C 1003,8hPa 14,0°C 0,0km/h (0Bft) 0,0km/h 0,0l/m² 7,886klx 0,0min
16:10 14,1°C 70,7% 8,9°C 1003,8hPa 14,1°C 0,0km/h (0Bft) 0,0km/h 0,0l/m² 8,228klx 0,0min
16:05 14,2°C 70,2% 8,8°C 1003,7hPa 14,2°C 0,0km/h (0Bft) 0,0km/h 0,0l/m² 7,497klx 0,0min
16:00 14,2°C 71,9% 9,2°C 1003,7hPa 14,2°C 0,0km/h (0Bft) 0,0km/h 0,0l/m² 9,518klx 0,0min
15:55 14,2°C 72,0% 9,2°C 1003,6hPa 14,2°C 0,0km/h (0Bft) 0,0km/h 0,0l/m² 15,231klx 0,0min
15:50 14,4°C 71,2% 9,2°C 1003,5hPa 14,4°C 0,0km/h (0Bft) 0,0km/h 0,0l/m² 19,410klx 0,0min
15:45 14,4°C 69,7% 8,9°C 1003,4hPa 14,4°C 0,0km/h (0Bft) 0,0km/h 0,0l/m² 19,774klx 0,0min
15:40 14,4°C 69,7% 8,9°C 1003,4hPa 14,4°C 0,0km/h (0Bft) 0,0km/h 0,0l/m² 19,856klx 0,0min
15:35 14,4°C 70,7% 9,1°C 1003,4hPa 14,4°C 0,0km/h (0Bft) 0,0km/h 0,0l/m² 21,479klx 0,0min
15:30 14,3°C 70,2% 9,0°C 1003,4hPa 14,3°C 0,0km/h (0Bft) 0,0km/h 0,0l/m² 22,705klx 0,0min
15:25 14,3°C 71,6% 9,2°C 1003,4hPa 14,3°C 0,0km/h (0Bft) 0,0km/h 0,0l/m² 21,548klx 0,0min
15:20 14,2°C 72,9% 9,4°C 1003,3hPa 14,2°C 0,0km/h (0Bft) 0,0km/h 0,0l/m² 19,751klx 0,0min
15:15 14,2°C 71,6% 9,1°C 1003,3hPa 14,2°C 0,0km/h (0Bft) 0,0km/h 0,0l/m² 19,445klx 0,0min
15:10 14,3°C 71,4% 9,1°C 1003,3hPa 14,3°C 0,0km/h (0Bft) 0,0km/h 0,0l/m² 17,793klx 0,0min
15:05 14,2°C 71,4% 9,1°C 1003,2hPa 14,2°C 0,0km/h (0Bft) 0,0km/h 0,0l/m² 20,380klx 0,0min
15:00 14,3°C 70,3% 8,9°C 1003,1hPa 14,3°C 0,0km/h (0Bft) 0,0km/h 0,0l/m² 24,936klx 0,0min
14:55 14,3°C 69,9% 8,9°C 1003,1hPa 14,3°C 0,0km/h (0Bft) 0,0km/h 0,0l/m² 28,274klx 0,0min
14:50 14,5°C 69,3% 8,9°C 1003,0hPa 14,5°C 0,0km/h (0Bft) 0,0km/h 0,0l/m² 33,143klx 0,0min
14:45 14,5°C 69,7% 9,0°C 1003,0hPa 14,5°C 0,0km/h (0Bft) 0,0km/h 0,0l/m² 38,900klx 0,0min
14:40 14,4°C 69,6% 8,9°C 1003,0hPa 14,4°C 0,0km/h (0Bft) 0,0km/h 0,0l/m² 42,495klx 0,0min
14:35 14,3°C 71,1% 9,2°C 1003,0hPa 14,3°C 0,0km/h (0Bft) 0,0km/h 0,0l/m² 38,832klx 0,0min
14:30 14,1°C 71,3% 9,0°C 1003,0hPa 14,1°C 0,0km/h (0Bft) 0,0km/h 0,0l/m² 39,052klx 0,0min
14:25 14,1°C 72,5% 9,2°C 1002,9hPa 14,1°C 0,0km/h (0Bft) 0,0km/h 0,0l/m² 36,382klx 0,0min
14:20 14,0°C 73,4% 9,3°C 1002,9hPa 14,0°C 0,0km/h (0Bft) 0,0km/h 0,0l/m² 37,274klx 0,0min
14:15 13,8°C 75,2% 9,5°C 1002,8hPa 13,8°C 0,0km/h (0Bft) 0,0km/h 0,0l/m² 40,852klx 0,0min
14:10 13,7°C 74,7% 9,3°C 1002,8hPa 13,7°C 0,0km/h (0Bft) 0,0km/h 0,0l/m² 30,654klx 0,0min
14:05 13,6°C 73,9% 9,0°C 1002,7hPa 13,6°C 0,0km/h (0Bft) 0,0km/h 0,0l/m² 24,628klx 0,0min
14:00 13,4°C 73,7% 8,8°C 1002,6hPa 13,4°C 0,0km/h (0Bft) 0,0km/h 0,0l/m² 21,945klx 0,0min
13:55 13,4°C 74,3% 8,9°C 1002,6hPa 13,4°C 0,0km/h (0Bft) 0,0km/h 0,0l/m² 14,872klx 0,0min
13:50 13,5°C 73,9% 8,9°C 1002,5hPa 13,5°C 0,0km/h (0Bft) 0,0km/h 0,0l/m² 20,193klx 0,0min
13:45 13,6°C 74,8% 9,2°C 1002,5hPa 13,6°C 0,0km/h (0Bft) 0,0km/h 0,0l/m² 25,653klx 0,0min
13:40 13,6°C 75,5% 9,3°C 1002,4hPa 13,6°C 0,0km/h (0Bft) 0,0km/h 0,0l/m² 29,229klx 0,0min
13:35 13,4°C 74,3% 8,9°C 1002,5hPa 13,4°C 0,0km/h (0Bft) 0,0km/h 0,0l/m² 32,110klx 0,0min
13:30 13,3°C 74,9% 8,9°C 1002,4hPa 13,3°C 0,0km/h (0Bft) 0,0km/h 0,0l/m² 28,435klx 0,0min
13:25 13,2°C 76,6% 9,2°C 1002,4hPa 13,2°C 0,0km/h (0Bft) 0,0km/h 0,0l/m² 25,130klx 0,0min
13:20 13,1°C 76,9% 9,2°C 1002,3hPa 13,1°C 0,0km/h (0Bft) 0,0km/h 0,0l/m² 22,729klx 0,0min
13:15 13,1°C 77,2% 9,2°C 1002,2hPa 13,1°C 0,0km/h (0Bft) 0,0km/h 0,0l/m² 25,991klx 0,0min
13:10 13,0°C 78,1% 9,3°C 1002,1hPa 13,0°C 0,0km/h (0Bft) 0,0km/h 0,0l/m² 27,845klx 0,0min
13:05 12,9°C 78,4% 9,2°C 1002,0hPa 12,9°C 0,0km/h (0Bft) 0,0km/h 0,0l/m² 28,560klx 0,0min
13:00 12,9°C 77,3% 9,0°C 1002,0hPa 12,9°C 0,0km/h (0Bft) 0,0km/h 0,0l/m² 21,792klx 0,0min
12:55 13,0°C 78,6% 9,3°C 1001,9hPa 13,0°C 0,0km/h (0Bft) 0,0km/h 0,0l/m² 27,966klx 0,0min
12:50 12,8°C 78,9% 9,2°C 1001,9hPa 12,8°C 0,0km/h (0Bft) 0,0km/h 0,0l/m² 26,412klx 0,0min
12:45 12,5°C 79,3% 9,0°C 1001,9hPa 12,5°C 0,0km/h (0Bft) 0,0km/h 0,0l/m² 19,330klx 0,0min
12:40 12,5°C 80,3% 9,2°C 1001,8hPa 12,5°C 0,0km/h (0Bft) 0,0km/h 0,0l/m² 15,462klx 0,0min
12:35 12,9°C 79,9% 9,5°C 1001,7hPa 12,9°C 0,0km/h (0Bft) 0,0km/h 0,0l/m² 23,742klx 0,0min
12:30 12,7°C 80,1% 9,4°C 1001,7hPa 12,7°C 0,0km/h (0Bft) 0,0km/h 0,0l/m² 31,273klx 0,0min
12:25 12,7°C 82,1% 9,7°C 1001,7hPa 12,7°C 0,0km/h (0Bft) 0,0km/h 0,0l/m² 31,355klx 0,0min
12:20 12,4°C 83,0% 9,6°C 1001,6hPa 12,4°C 0,0km/h (0Bft) 0,0km/h 0,0l/m² 28,395klx 0,0min
12:15 12,2°C 83,8% 9,5°C 1001,6hPa 12,2°C 0,0km/h (0Bft) 0,0km/h 0,0l/m² 17,086klx 0,0min
12:10 12,1°C 83,2% 9,4°C 1001,6hPa 12,1°C 0,0km/h (0Bft) 0,0km/h 0,0l/m² 11,978klx 0,0min
12:05 12,2°C 82,9% 9,4°C 1001,5hPa 12,2°C 0,0km/h (0Bft) 0,0km/h 0,0l/m² 12,901klx 0,0min
12:00 12,2°C 80,5% 8,9°C 1001,5hPa 12,2°C 0,0km/h (0Bft) 0,0km/h 0,0l/m² 13,409klx 0,0min
11:55 12,1°C 80,6% 8,9°C 1001,5hPa 12,1°C 0,0km/h (0Bft) 0,0km/h 0,0l/m² 15,593klx 0,0min
11:50 12,2°C 81,8% 9,2°C 1001,4hPa 12,2°C 0,0km/h (0Bft) 0,0km/h 0,0l/m² 18,738klx 0,0min
11:45 12,1°C 81,7% 9,0°C 1001,3hPa 12,1°C 0,0km/h (0Bft) 0,0km/h 0,0l/m² 20,591klx 0,0min
11:40 12,0°C 84,2% 9,4°C 1001,1hPa 12,0°C 0,0km/h (0Bft) 0,0km/h 0,0l/m² 19,174klx 0,0min
11:35 11,9°C 83,6% 9,2°C 1001,1hPa 11,9°C 0,0km/h (0Bft) 0,0km/h 0,0l/m² 16,777klx 0,0min
11:30 11,8°C 83,5% 9,1°C 1001,0hPa 11,8°C 0,0km/h (0Bft) 0,0km/h 0,0l/m² 16,512klx 0,0min
11:25 11,8°C 86,6% 9,7°C 1000,8hPa 11,8°C 0,0km/h (0Bft) 0,0km/h 0,0l/m² 16,741klx 0,0min
11:20 11,8°C 85,4% 9,4°C 1000,7hPa 11,8°C 0,0km/h (0Bft) 0,0km/h 0,0l/m² 15,424klx 0,0min
11:15 11,8°C 84,6% 9,2°C 1000,7hPa 11,8°C 0,0km/h (0Bft) 0,0km/h 0,0l/m² 16,319klx 0,0min
11:10 11,7°C 83,6% 9,0°C 1000,7hPa 11,7°C 0,0km/h (0Bft) 0,0km/h 0,0l/m² 15,905klx 0,0min
11:05 11,6°C 83,0% 8,8°C 1000,6hPa 11,6°C 0,0km/h (0Bft) 0,0km/h 0,0l/m² 15,016klx 0,0min
11:00 11,6°C 83,4% 8,8°C 1000,5hPa 11,6°C 0,0km/h (0Bft) 0,0km/h 0,0l/m² 13,004klx 0,0min
10:55 11,6°C 84,3% 9,0°C 1000,3hPa 11,6°C 0,0km/h (0Bft) 0,0km/h 0,0l/m² 12,998klx 0,0min
10:50 11,6°C 84,7% 9,1°C 1000,2hPa 11,6°C 0,0km/h (0Bft) 0,0km/h 0,0l/m² 13,399klx 0,0min
10:45 11,6°C 85,5% 9,2°C 1000,1hPa 11,6°C 0,0km/h (0Bft) 0,0km/h 0,0l/m² 16,052klx 0,0min
10:40 11,7°C 85,3% 9,3°C 1000,0hPa 11,7°C 0,0km/h (0Bft) 0,0km/h 0,0l/m² 18,016klx 0,0min
10:35 11,7°C 84,5% 9,2°C 1000,0hPa 11,7°C 0,0km/h (0Bft) 0,0km/h 0,0l/m² 21,716klx 0,0min
10:30 11,6°C 85,2% 9,2°C 1000,0hPa 11,6°C 0,0km/h (0Bft) 0,0km/h 0,0l/m² 24,282klx 0,0min
10:25 11,6°C 85,2% 9,2°C 999,9hPa 11,6°C 0,0km/h (0Bft) 0,0km/h 0,0l/m² 22,411klx 0,0min
10:20 11,7°C 85,9% 9,4°C 999,8hPa 11,7°C 0,0km/h (0Bft) 0,0km/h 0,0l/m² 25,384klx 0,0min
10:15 11,7°C 86,7% 9,6°C 999,7hPa 11,7°C 0,0km/h (0Bft) 0,0km/h 0,0l/m² 30,489klx 0,0min
10:10 11,6°C 86,5% 9,5°C 999,6hPa 11,6°C 0,0km/h (0Bft) 0,0km/h 0,0l/m² 22,483klx 0,0min
10:05 11,7°C 86,8% 9,6°C 999,5hPa 11,7°C 0,0km/h (0Bft) 0,0km/h 0,0l/m² 24,161klx 0,0min
10:00 11,9°C 87,9% 9,9°C 999,4hPa 11,9°C 0,0km/h (0Bft) 0,0km/h 0,0l/m² 24,836klx 0,0min
09:55 11,8°C 88,4% 9,9°C 999,3hPa 11,8°C 0,0km/h (0Bft) 0,0km/h 0,0l/m² 26,903klx 0,0min
09:50 11,7°C 87,9% 9,7°C 999,2hPa 11,7°C 0,0km/h (0Bft) 0,0km/h 0,0l/m² 26,416klx 0,0min
09:45 11,6°C 88,4% 9,7°C 999,1hPa 11,6°C 0,0km/h (0Bft) 0,0km/h 0,0l/m² 25,369klx 0,0min
09:40 11,3°C 88,2% 9,4°C 998,9hPa 11,3°C 0,0km/h (0Bft) 0,0km/h 0,0l/m² 23,703klx 0,0min
09:35 11,1°C 88,9% 9,3°C 998,9hPa 11,1°C 0,0km/h (0Bft) 0,0km/h 0,0l/m² 21,718klx 0,0min
09:30 10,8°C 89,3% 9,1°C 998,9hPa 10,8°C 0,0km/h (0Bft) 0,0km/h 0,0l/m² 18,462klx 0,0min
09:25 10,7°C 89,9% 9,1°C 998,9hPa 10,7°C 0,0km/h (0Bft) 0,0km/h 0,0l/m² 18,812klx 0,0min
09:20 10,3°C 90,5% 8,8°C 998,8hPa 10,3°C 0,0km/h (0Bft) 0,0km/h 0,0l/m² 18,167klx 0,0min
09:15 10,1°C 91,2% 8,8°C 998,7hPa 10,1°C 0,0km/h (0Bft) 0,0km/h 0,0l/m² 13,034klx 0,0min
09:10 10,2°C 91,5% 8,8°C 998,7hPa 10,2°C 0,0km/h (0Bft) 0,0km/h 0,0l/m² 10,132klx 0,0min
09:05 10,2°C 91,7% 8,9°C 998,6hPa 10,2°C 0,0km/h (0Bft) 0,0km/h 0,0l/m² 8,876klx 0,0min
09:00 10,2°C 91,7% 8,9°C 998,4hPa 10,2°C 0,0km/h (0Bft) 0,0km/h 0,0l/m² 9,464klx 0,0min
08:55 10,1°C 91,8% 8,9°C 998,3hPa 10,1°C 0,0km/h (0Bft) 0,0km/h 0,0l/m² 8,856klx 0,0min
08:50 10,1°C 91,9% 8,8°C 998,1hPa 10,1°C 0,0km/h (0Bft) 0,0km/h 0,0l/m² 7,992klx 0,0min
08:45 10,0°C 92,0% 8,7°C 998,0hPa 10,0°C 0,0km/h (0Bft) 0,0km/h 0,0l/m² 6,858klx 0,0min
08:40 10,0°C 92,0% 8,8°C 997,9hPa 10,0°C 0,0km/h (0Bft) 0,0km/h 0,0l/m² 5,246klx 0,0min
08:35 9,8°C 92,0% 8,6°C 997,7hPa 9,8°C 0,0km/h (0Bft) 0,0km/h 0,0l/m² 5,233klx 0,0min
08:30 9,7°C 92,2% 8,4°C 997,5hPa 9,7°C 0,0km/h (0Bft) 0,0km/h 0,0l/m² 5,484klx 0,0min
08:25 9,7°C 92,2% 8,5°C 997,3hPa 9,7°C 0,0km/h (0Bft) 0,0km/h 0,0l/m² 5,125klx 0,0min
08:20 9,8°C 92,3% 8,6°C 997,3hPa 9,8°C 0,0km/h (0Bft) 0,0km/h 0,0l/m² 4,725klx 0,0min
08:15 9,8°C 92,3% 8,6°C 997,3hPa 9,8°C 0,0km/h (0Bft) 0,0km/h 0,0l/m² 3,789klx 0,0min
08:10 9,9°C 92,3% 8,7°C 997,2hPa 9,9°C 0,0km/h (0Bft) 0,0km/h 0,0l/m² 2,499klx 0,0min
08:05 9,9°C 92,3% 8,7°C 997,0hPa 9,9°C 0,0km/h (0Bft) 0,0km/h 0,0l/m² 1,927klx 0,0min
08:00 9,8°C 92,3% 8,6°C 996,9hPa 9,8°C 0,0km/h (0Bft) 0,0km/h 0,0l/m² 1,436klx 0,0min
07:55 9,8°C 92,3% 8,6°C 996,8hPa 9,8°C 0,0km/h (0Bft) 0,0km/h 0,0l/m² 1,302klx 0,0min
07:50 9,8°C 92,4% 8,6°C 996,6hPa 9,8°C 0,0km/h (0Bft) 0,0km/h 0,0l/m² 1,112klx 0,0min
07:45 9,9°C 92,3% 8,7°C 996,5hPa 9,9°C 0,0km/h (0Bft) 0,0km/h 0,0l/m² 0,809klx 0,0min
07:40 9,9°C 92,3% 8,7°C 996,3hPa 9,9°C 0,0km/h (0Bft) 0,0km/h 0,0l/m² 0,646klx 0,0min
07:35 9,8°C 92,4% 8,7°C 996,2hPa 9,8°C 0,0km/h (0Bft) 0,0km/h 0,0l/m² 0,477klx 0,0min
07:30 9,9°C 92,4% 8,7°C 996,0hPa 9,9°C 0,0km/h (0Bft) 0,0km/h 0,0l/m² 0,377klx 0,0min
07:25 9,9°C 92,3% 8,8°C 995,9hPa 9,9°C 0,0km/h (0Bft) 0,0km/h 0,0l/m² 0,230klx 0,0min
07:20 9,9°C 92,3% 8,7°C 995,7hPa 9,9°C 0,0km/h (0Bft) 0,0km/h 0,0l/m² 0,132klx 0,0min
07:15 9,9°C 92,3% 8,7°C 995,5hPa 9,9°C 0,0km/h (0Bft) 0,0km/h 0,0l/m² 0,074klx 0,0min
07:10 9,8°C 92,4% 8,7°C 995,4hPa 9,8°C 0,0km/h (0Bft) 0,0km/h 0,0l/m² 0,036klx 0,0min
07:05 9,8°C 92,4% 8,7°C 995,2hPa 9,8°C 0,0km/h (0Bft) 0,0km/h 0,0l/m² 0,015klx 0,0min
07:00 9,8°C 92,4% 8,6°C 995,1hPa 9,8°C 0,0km/h (0Bft) 0,0km/h 0,0l/m² 0,006klx 0,0min
06:55 9,8°C 92,4% 8,6°C 995,0hPa 9,8°C 0,0km/h (0Bft) 0,0km/h 0,0l/m² 0,003klx 0,0min
06:50 9,8°C 92,4% 8,6°C 994,9hPa 9,8°C 0,0km/h (0Bft) 0,0km/h 0,0l/m² 0,001klx 0,0min
06:45 9,8°C 92,4% 8,6°C 994,9hPa 9,8°C 0,0km/h (0Bft) 0,0km/h 0,0l/m² 0,001klx 0,0min
06:40 9,9°C 92,4% 8,7°C 994,8hPa 9,9°C 0,0km/h (0Bft) 0,0km/h 0,0l/m² 0,000klx 0,0min
06:35 9,9°C 92,4% 8,7°C 994,8hPa 9,9°C 0,0km/h (0Bft) 0,0km/h 0,0l/m² 0,000klx 0,0min
06:30 9,9°C 92,4% 8,7°C 994,7hPa 9,9°C 0,0km/h (0Bft) 0,0km/h 0,0l/m² 0,000klx 0,0min
06:25 10,0°C 92,3% 8,8°C 994,6hPa 10,0°C 0,0km/h (0Bft) 0,0km/h 0,0l/m² 0,000klx 0,0min
06:20 10,0°C 92,3% 8,9°C 994,4hPa 10,0°C 0,0km/h (0Bft) 0,0km/h 0,0l/m² 0,000klx 0,0min
06:15 10,1°C 92,3% 8,9°C 994,2hPa 10,1°C 0,0km/h (0Bft) 0,0km/h 0,0l/m² 0,000klx 0,0min
06:10 10,1°C 92,3% 8,9°C 994,2hPa 10,1°C 0,0km/h (0Bft) 0,0km/h 0,0l/m² 0,000klx 0,0min
06:05 10,2°C 92,3% 9,0°C 994,2hPa 10,2°C 0,0km/h (0Bft) 0,0km/h 0,0l/m² 0,000klx 0,0min
06:00 10,2°C 92,3% 9,0°C 994,0hPa 10,2°C 0,0km/h (0Bft) 0,0km/h 0,0l/m² 0,000klx 0,0min
05:55 10,2°C 92,3% 9,0°C 993,9hPa 10,2°C 0,0km/h (0Bft) 0,0km/h 0,0l/m² 0,000klx 0,0min
05:50 10,2°C 92,3% 9,0°C 993,9hPa 10,2°C 0,0km/h (0Bft) 0,0km/h 0,0l/m² 0,000klx 0,0min
05:45 10,3°C 92,3% 9,1°C 993,7hPa 10,3°C 0,0km/h (0Bft) 0,0km/h 0,0l/m² 0,000klx 0,0min
05:40 10,4°C 92,2% 9,2°C 993,6hPa 10,4°C 0,0km/h (0Bft) 0,0km/h 0,0l/m² 0,000klx 0,0min
05:35 10,4°C 92,2% 9,2°C 993,5hPa 10,4°C 0,0km/h (0Bft) 0,0km/h 0,0l/m² 0,000klx 0,0min
05:30 10,4°C 92,2% 9,2°C 993,4hPa 10,4°C 0,0km/h (0Bft) 0,0km/h 0,0l/m² 0,000klx 0,0min
05:25 10,4°C 92,2% 9,2°C 993,1hPa 10,4°C 0,0km/h (0Bft) 0,0km/h 0,0l/m² 0,000klx 0,0min
05:20 10,5°C 92,2% 9,2°C 993,0hPa 10,5°C 0,0km/h (0Bft) 0,0km/h 0,0l/m² 0,000klx 0,0min
05:15 10,5°C 92,2% 9,3°C 992,9hPa 10,5°C 0,0km/h (0Bft) 0,0km/h 0,0l/m² 0,000klx 0,0min
05:10 10,6°C 92,2% 9,3°C 992,9hPa 10,6°C 0,0km/h (0Bft) 0,0km/h 0,0l/m² 0,000klx 0,0min
05:05 10,5°C 92,2% 9,3°C 992,9hPa 10,5°C 0,0km/h (0Bft) 0,0km/h 0,0l/m² 0,000klx 0,0min
05:00 10,6°C 92,2% 9,3°C 992,9hPa 10,6°C 0,0km/h (0Bft) 0,0km/h 0,0l/m² 0,000klx 0,0min
04:55 10,7°C 92,1% 9,4°C 992,8hPa 10,7°C 0,0km/h (0Bft) 0,0km/h 0,0l/m² 0,000klx 0,0min
04:50 10,8°C 92,1% 9,5°C 992,7hPa 10,8°C 0,0km/h (0Bft) 0,0km/h 0,0l/m² 0,000klx 0,0min
04:45 10,9°C 92,1% 9,7°C 992,7hPa 10,9°C 0,0km/h (0Bft) 0,0km/h 0,0l/m² 0,000klx 0,0min
04:40 11,0°C 92,0% 9,8°C 992,7hPa 11,0°C 0,0km/h (0Bft) 0,0km/h 0,0l/m² 0,000klx 2,8min
04:35 11,0°C 92,0% 9,8°C 992,7hPa 11,0°C 0,0km/h (0Bft) 0,0km/h 0,0l/m² 0,000klx 5,0min
04:30 11,0°C 92,0% 9,7°C 992,7hPa 11,0°C 0,0km/h (0Bft) 0,0km/h 0,0l/m² 0,000klx 5,0min
04:25 11,0°C 92,0% 9,8°C 992,5hPa 11,0°C 0,0km/h (0Bft) 0,0km/h 0,0l/m² 0,000klx 5,0min
04:20 11,1°C 92,0% 9,9°C 992,4hPa 11,1°C 0,0km/h (0Bft) 0,0km/h 0,0l/m² 0,000klx 5,0min
04:15 11,3°C 92,0% 10,0°C 992,5hPa 11,3°C 0,0km/h (0Bft) 0,0km/h 0,0l/m² 0,000klx 5,0min
04:10 11,3°C 91,9% 10,1°C 992,5hPa 11,3°C 0,0km/h (0Bft) 0,0km/h 0,0l/m² 0,000klx 5,0min
04:05 11,5°C 91,9% 10,3°C 992,4hPa 11,5°C 0,0km/h (0Bft) 0,0km/h 0,1l/m² 0,000klx 5,0min
04:00 11,9°C 91,9% 10,6°C 992,3hPa 11,9°C 0,0km/h (0Bft) 0,0km/h 0,2l/m² 0,000klx 5,0min
03:55 12,1°C 91,8% 10,8°C 992,2hPa 12,1°C 0,0km/h (0Bft) 0,0km/h 0,2l/m² 0,000klx 5,0min
03:50 12,3°C 91,7% 11,0°C 992,2hPa 12,3°C 0,0km/h (0Bft) 0,0km/h 0,1l/m² 0,000klx 5,0min
03:45 12,3°C 91,7% 11,0°C 992,1hPa 12,3°C 0,0km/h (0Bft) 0,0km/h 0,1l/m² 0,000klx 5,0min
03:40 12,3°C 91,7% 11,0°C 992,1hPa 12,3°C 0,0km/h (0Bft) 0,0km/h 0,1l/m² 0,000klx 5,0min
03:35 12,3°C 91,7% 11,0°C 992,0hPa 12,3°C 0,0km/h (0Bft) 0,0km/h 0,1l/m² 0,000klx 5,0min
03:30 12,3°C 91,7% 11,0°C 992,0hPa 12,3°C 0,0km/h (0Bft) 0,0km/h 0,1l/m² 0,000klx 5,0min
03:25 12,3°C 91,7% 11,0°C 992,1hPa 12,3°C 0,0km/h (0Bft) 0,0km/h 0,1l/m² 0,000klx 5,0min
03:20 12,3°C 91,7% 11,0°C 992,1hPa 12,3°C 0,0km/h (0Bft) 0,0km/h 0,2l/m² 0,000klx 5,0min
03:15 12,3°C 91,7% 10,9°C 992,0hPa 12,3°C 0,0km/h (0Bft) 0,0km/h 0,2l/m² 0,000klx 5,0min
03:10 12,2°C 91,7% 10,9°C 992,0hPa 12,2°C 0,0km/h (0Bft) 0,0km/h 0,2l/m² 0,000klx 5,0min
03:05 12,2°C 91,7% 10,9°C 992,1hPa 12,2°C 0,0km/h (0Bft) 0,0km/h 0,1l/m² 0,000klx 5,0min
03:00 12,2°C 91,7% 10,9°C 992,1hPa 12,2°C 0,0km/h (0Bft) 0,0km/h 0,1l/m² 0,000klx 5,0min
02:55 12,2°C 91,7% 10,9°C 992,2hPa 12,2°C 0,0km/h (0Bft) 0,0km/h 0,0l/m² 0,000klx 5,0min
02:50 12,2°C 91,7% 10,8°C 992,2hPa 12,2°C 0,0km/h (0Bft) 0,0km/h 0,1l/m² 0,000klx 5,0min
02:45 12,1°C 91,7% 10,8°C 992,3hPa 12,1°C 0,0km/h (0Bft) 0,0km/h 0,1l/m² 0,000klx 5,0min
02:40 12,1°C 91,6% 10,8°C 992,4hPa 12,1°C 0,0km/h (0Bft) 0,0km/h 0,2l/m² 0,000klx 5,0min
02:35 12,1°C 91,6% 10,8°C 992,4hPa 12,1°C 0,0km/h (0Bft) 0,0km/h 0,2l/m² 0,000klx 5,0min
02:30 12,1°C 91,6% 10,7°C 992,4hPa 12,1°C 0,0km/h (0Bft) 0,0km/h 0,1l/m² 0,000klx 5,0min
02:25 12,1°C 91,6% 10,7°C 992,5hPa 12,1°C 0,0km/h (0Bft) 0,0km/h 0,1l/m² 0,000klx 5,0min
02:20 12,1°C 91,6% 10,7°C 992,6hPa 12,1°C 0,0km/h (0Bft) 0,0km/h 0,1l/m² 0,000klx 5,0min
02:15 12,0°C 91,6% 10,7°C 992,6hPa 12,0°C 0,0km/h (0Bft) 0,0km/h 0,2l/m² 0,000klx 5,0min
02:10 12,0°C 91,6% 10,7°C 992,6hPa 12,0°C 0,0km/h (0Bft) 0,0km/h 0,1l/m² 0,000klx 5,0min
02:05 12,0°C 91,6% 10,7°C 992,7hPa 12,0°C 0,0km/h (0Bft) 0,0km/h 0,1l/m² 0,000klx 5,0min
02:00 12,0°C 91,6% 10,6°C 992,7hPa 12,0°C 0,0km/h (0Bft) 0,0km/h 0,1l/m² 0,000klx 5,0min
01:55 11,9°C 91,6% 10,6°C 992,7hPa 11,9°C 0,0km/h (0Bft) 0,0km/h 0,1l/m² 0,000klx 5,0min
01:50 11,8°C 91,6% 10,5°C 992,7hPa 11,8°C 0,0km/h (0Bft) 0,0km/h 0,1l/m² 0,000klx 5,0min
01:45 11,7°C 91,6% 10,4°C 992,9hPa 11,7°C 0,0km/h (0Bft) 0,0km/h 0,2l/m² 0,000klx 5,0min
01:40 11,6°C 91,6% 10,2°C 993,0hPa 11,6°C 0,0km/h (0Bft) 0,0km/h 0,3l/m² 0,000klx 5,0min
01:35 11,3°C 91,7% 9,9°C 993,2hPa 11,3°C 0,0km/h (0Bft) 0,0km/h 0,2l/m² 0,000klx 5,0min
01:30 11,0°C 91,7% 9,7°C 993,3hPa 11,0°C 0,0km/h (0Bft) 0,0km/h 0,2l/m² 0,000klx 5,0min
01:25 10,9°C 91,7% 9,6°C 993,3hPa 10,9°C 0,0km/h (0Bft) 0,0km/h 0,4l/m² 0,000klx 5,0min
01:20 10,8°C 91,7% 9,5°C 993,4hPa 10,8°C 0,0km/h (0Bft) 0,0km/h 0,2l/m² 0,000klx 5,0min
01:15 10,7°C 91,7% 9,4°C 993,6hPa 10,7°C 0,0km/h (0Bft) 0,0km/h 0,2l/m² 0,000klx 5,0min
01:10 10,6°C 91,7% 9,3°C 993,8hPa 10,6°C 0,0km/h (0Bft) 0,0km/h 0,1l/m² 0,000klx 5,0min
01:05 10,5°C 91,8% 9,2°C 993,9hPa 10,5°C 0,0km/h (0Bft) 0,0km/h 0,2l/m² 0,000klx 5,0min
01:00 10,5°C 91,7% 9,2°C 994,0hPa 10,5°C 0,0km/h (0Bft) 0,0km/h 0,1l/m² 0,000klx 5,0min
00:55 10,4°C 91,8% 9,1°C 994,1hPa 10,4°C 0,0km/h (0Bft) 0,0km/h 0,2l/m² 0,000klx 5,0min
00:50 10,2°C 91,8% 9,0°C 994,3hPa 10,2°C 0,0km/h (0Bft) 0,0km/h 0,5l/m² 0,000klx 5,0min
00:45 10,2°C 91,8% 8,9°C 994,4hPa 10,2°C 0,0km/h (0Bft) 0,0km/h 0,3l/m² 0,000klx 5,0min
00:40 10,1°C 91,8% 8,8°C 994,5hPa 10,1°C 0,0km/h (0Bft) 0,0km/h 0,2l/m² 0,000klx 5,0min
00:35 10,1°C 91,8% 8,8°C 994,7hPa 10,1°C 0,0km/h (0Bft) 0,0km/h 0,3l/m² 0,000klx 5,0min
00:30 10,1°C 91,8% 8,8°C 994,9hPa 10,1°C 0,0km/h (0Bft) 0,0km/h 0,3l/m² 0,000klx 5,0min
00:25 10,0°C 91,8% 8,7°C 995,1hPa 10,0°C 0,0km/h (0Bft) 0,0km/h 0,3l/m² 0,000klx 5,0min
00:20 10,0°C 91,8% 8,7°C 995,2hPa 10,0°C 0,0km/h (0Bft) 0,0km/h 0,4l/m² 0,000klx 5,0min
00:15 10,0°C 91,8% 8,7°C 995,4hPa 10,0°C 0,0km/h (0Bft) 0,0km/h 0,8l/m² 0,000klx 5,0min
00:10 9,9°C 91,8% 8,6°C 995,5hPa 9,9°C 0,0km/h (0Bft) 0,0km/h 0,4l/m² 0,000klx 5,0min
00:05 9,9°C 91,8% 8,6°C 995,6hPa 9,9°C 0,0km/h (0Bft) 0,0km/h 0,2l/m² 0,000klx 5,0min
00:00 9,9°C 91,8% 8,6°C 995,7hPa 9,9°C 0,0km/h (0Bft) 0,0km/h 0,3l/m² 0,000klx 5,0min

Aktuelle Wetterdaten

27.09.2020 21:30 Uhr